IAW308 LTFJ-ORBI
Flight info
| Callsign | IAW308 |
|---|---|
| Flight time | 2h 20m |
| Altitude | 37000 |
| Route | VICEN T57 VEVUD UT341 BAG UL614 OTKEP UM688 RATVO M688 VAXEN |
| Aircraft | A320/M-SDE3FGHIRWY/LB1 |
Departure
| Time | 2026-04-25 02:59 |
|---|---|
| Airport | Istanbul Sabiha Gökçen International Airport (LTFJ) |
Arrival
| Time | 2026-04-25 05:20 |
|---|---|
| Airport | Baghdad International Airport / New Al Muthana Air Base (ORBI) |
| Time | Latitude | Longitude | Altitude | Speed | Heading |
|---|---|---|---|---|---|
| 2026-04-25 02:33 | 40.90645 | 29.31729 | 321 ft | 0 kts | 334° |
| 2026-04-25 02:47 | 40.90629 | 29.31740 | 321 ft | 4 kts | 333° |
| 2026-04-25 02:48 | 40.90605 | 29.31757 | 321 ft | 4 kts | 327° |
| 2026-04-25 02:48 | 40.90585 | 29.31778 | 321 ft | 4 kts | 297° |
| 2026-04-25 02:48 | 40.90582 | 29.31797 | 320 ft | 0 kts | 243° |
| 2026-04-25 02:51 | 40.90580 | 29.31794 | 321 ft | 4 kts | 243° |
| 2026-04-25 02:52 | 40.90550 | 29.31715 | 321 ft | 11 kts | 243° |
| 2026-04-25 02:52 | 40.90518 | 29.31630 | 319 ft | 9 kts | 243° |
| 2026-04-25 02:52 | 40.90491 | 29.31559 | 321 ft | 8 kts | 246° |
| 2026-04-25 02:52 | 40.90468 | 29.31487 | 320 ft | 10 kts | 246° |
| 2026-04-25 02:53 | 40.90434 | 29.31391 | 321 ft | 13 kts | 244° |
| 2026-04-25 02:53 | 40.90389 | 29.31273 | 321 ft | 16 kts | 244° |
| 2026-04-25 02:53 | 40.90339 | 29.31120 | 321 ft | 20 kts | 250° |
| 2026-04-25 02:53 | 40.90272 | 29.30954 | 319 ft | 21 kts | 243° |
| 2026-04-25 02:54 | 40.90235 | 29.30874 | 321 ft | 6 kts | 207° |
| 2026-04-25 02:54 | 40.90193 | 29.30886 | 319 ft | 7 kts | 160° |
| 2026-04-25 02:54 | 40.90145 | 29.30917 | 321 ft | 9 kts | 152° |
| 2026-04-25 02:54 | 40.90081 | 29.30939 | 321 ft | 11 kts | 189° |
| 2026-04-25 02:55 | 40.90039 | 29.30854 | 320 ft | 12 kts | 244° |
| 2026-04-25 02:55 | 40.90000 | 29.30744 | 320 ft | 14 kts | 245° |
| 2026-04-25 02:55 | 40.89954 | 29.30617 | 319 ft | 17 kts | 245° |
| 2026-04-25 02:55 | 40.89899 | 29.30469 | 320 ft | 19 kts | 243° |
| 2026-04-25 02:56 | 40.89837 | 29.30297 | 320 ft | 22 kts | 243° |
| 2026-04-25 02:56 | 40.89768 | 29.30104 | 319 ft | 24 kts | 246° |
| 2026-04-25 02:56 | 40.89688 | 29.29893 | 321 ft | 27 kts | 242° |
| 2026-04-25 02:56 | 40.89603 | 29.29669 | 321 ft | 28 kts | 244° |
| 2026-04-25 02:57 | 40.89517 | 29.29437 | 321 ft | 28 kts | 244° |
| 2026-04-25 02:57 | 40.89462 | 29.29281 | 321 ft | 12 kts | 245° |
| 2026-04-25 02:57 | 40.89397 | 29.29252 | 320 ft | 9 kts | 169° |
| 2026-04-25 02:57 | 40.89342 | 29.29288 | 320 ft | 8 kts | 153° |
| 2026-04-25 02:58 | 40.89303 | 29.29314 | 320 ft | 4 kts | 153° |
| 2026-04-25 02:58 | 40.89288 | 29.29324 | 322 ft | 4 kts | 153° |
| 2026-04-25 02:58 | 40.89284 | 29.29362 | 322 ft | 5 kts | 77° |
| 2026-04-25 02:58 | 40.89296 | 29.29398 | 322 ft | 4 kts | 65° |
| 2026-04-25 02:59 | 40.89367 | 29.29592 | 320 ft | 58 kts | 64° |
| 2026-04-25 02:59 | 40.89638 | 29.30325 | 322 ft | 120 kts | 64° |
| 2026-04-25 02:59 | 40.90082 | 29.31529 | 333 ft | 168 kts | 64° |
| 2026-04-25 02:59 | 40.90596 | 29.32896 | 933 ft | 164 kts | 63° |
| 2026-04-25 03:00 | 40.91110 | 29.34249 | 1577 ft | 166 kts | 64° |
| 2026-04-25 03:00 | 40.91643 | 29.35708 | 1977 ft | 187 kts | 64° |
| 2026-04-25 03:00 | 40.92239 | 29.37350 | 2265 ft | 209 kts | 64° |
| 2026-04-25 03:00 | 40.92896 | 29.39159 | 2614 ft | 229 kts | 64° |
| 2026-04-25 03:01 | 40.93380 | 29.41241 | 3083 ft | 246 kts | 91° |
| 2026-04-25 03:01 | 40.92858 | 29.43391 | 3702 ft | 257 kts | 128° |
| 2026-04-25 03:01 | 40.91472 | 29.44915 | 4428 ft | 264 kts | 151° |
| 2026-04-25 03:01 | 40.89794 | 29.45964 | 5247 ft | 268 kts | 158° |
| 2026-04-25 03:02 | 40.88042 | 29.46853 | 6084 ft | 271 kts | 159° |
| 2026-04-25 03:02 | 40.86271 | 29.47742 | 6930 ft | 274 kts | 158° |
| 2026-04-25 03:02 | 40.84489 | 29.48697 | 7699 ft | 279 kts | 156° |
| 2026-04-25 03:02 | 40.82696 | 29.49726 | 8459 ft | 283 kts | 155° |
| 2026-04-25 03:03 | 40.80893 | 29.50817 | 9203 ft | 288 kts | 154° |
| 2026-04-25 03:03 | 40.79080 | 29.51984 | 9918 ft | 292 kts | 148° |
| 2026-04-25 03:03 | 40.77508 | 29.53689 | 10605 ft | 296 kts | 130° |
| 2026-04-25 03:03 | 40.76412 | 29.55998 | 11288 ft | 300 kts | 111° |
| 2026-04-25 03:04 | 40.75789 | 29.58678 | 11667 ft | 316 kts | 104° |
| 2026-04-25 03:04 | 40.75207 | 29.61545 | 11825 ft | 339 kts | 104° |
| 2026-04-25 03:04 | 40.74588 | 29.64644 | 12021 ft | 359 kts | 104° |
| 2026-04-25 03:05 | 40.73457 | 29.71178 | 13161 ft | 370 kts | 94° |
| 2026-04-25 03:05 | 40.73362 | 29.74588 | 13778 ft | 373 kts | 90° |
| 2026-04-25 03:05 | 40.73314 | 29.78025 | 14393 ft | 376 kts | 90° |
| 2026-04-25 03:05 | 40.73259 | 29.81490 | 14994 ft | 380 kts | 90° |
| 2026-04-25 03:06 | 40.73200 | 29.84986 | 15574 ft | 383 kts | 90° |
| 2026-04-25 03:06 | 40.73136 | 29.88514 | 16141 ft | 387 kts | 90° |
| 2026-04-25 03:06 | 40.73069 | 29.92073 | 16698 ft | 390 kts | 90° |
| 2026-04-25 03:06 | 40.72999 | 29.95662 | 17246 ft | 393 kts | 90° |
| 2026-04-25 03:07 | 40.72922 | 29.99280 | 17788 ft | 397 kts | 90° |
| 2026-04-25 03:07 | 40.72843 | 30.02938 | 18290 ft | 401 kts | 90° |
| 2026-04-25 03:07 | 40.72573 | 30.06623 | 18764 ft | 407 kts | 99° |
| 2026-04-25 03:07 | 40.71833 | 30.10249 | 19277 ft | 412 kts | 108° |
| 2026-04-25 03:08 | 40.70895 | 30.13778 | 19796 ft | 415 kts | 108° |
| 2026-04-25 03:08 | 40.69938 | 30.17384 | 20313 ft | 418 kts | 108° |
| 2026-04-25 03:08 | 40.68975 | 30.21009 | 20798 ft | 421 kts | 108° |
| 2026-04-25 03:08 | 40.68005 | 30.24656 | 21304 ft | 423 kts | 108° |
| 2026-04-25 03:09 | 40.66971 | 30.28304 | 21768 ft | 426 kts | 113° |
| 2026-04-25 03:09 | 40.65551 | 30.31735 | 22192 ft | 429 kts | 123° |
| 2026-04-25 03:09 | 40.63755 | 30.34896 | 22616 ft | 432 kts | 127° |
| 2026-04-25 03:09 | 40.61906 | 30.38025 | 23047 ft | 434 kts | 127° |
| 2026-04-25 03:10 | 40.60060 | 30.41159 | 23560 ft | 433 kts | 127° |
| 2026-04-25 03:10 | 40.58219 | 30.44291 | 24033 ft | 433 kts | 126° |
| 2026-04-25 03:10 | 40.56377 | 30.47428 | 24455 ft | 433 kts | 126° |
| 2026-04-25 03:10 | 40.54645 | 30.50667 | 24819 ft | 434 kts | 119° |
| 2026-04-25 03:11 | 40.53313 | 30.54226 | 25167 ft | 434 kts | 110° |
| 2026-04-25 03:11 | 40.52428 | 30.58019 | 25508 ft | 435 kts | 102° |
| 2026-04-25 03:11 | 40.51747 | 30.61898 | 25834 ft | 437 kts | 102° |
| 2026-04-25 03:11 | 40.51056 | 30.65794 | 26144 ft | 439 kts | 102° |
| 2026-04-25 03:12 | 40.50366 | 30.69660 | 26445 ft | 441 kts | 102° |
| 2026-04-25 03:12 | 40.49660 | 30.73598 | 26743 ft | 443 kts | 103° |
| 2026-04-25 03:12 | 40.48871 | 30.77528 | 27037 ft | 445 kts | 105° |
| 2026-04-25 03:12 | 40.47981 | 30.81422 | 27310 ft | 447 kts | 107° |
| 2026-04-25 03:13 | 40.47021 | 30.85313 | 27589 ft | 449 kts | 107° |
| 2026-04-25 03:13 | 40.46033 | 30.89221 | 27864 ft | 450 kts | 107° |
| 2026-04-25 03:13 | 40.45054 | 30.93134 | 28124 ft | 452 kts | 107° |
| 2026-04-25 03:13 | 40.44090 | 30.97072 | 28373 ft | 454 kts | 107° |
| 2026-04-25 03:14 | 40.43138 | 31.01035 | 28613 ft | 455 kts | 107° |
| 2026-04-25 03:14 | 40.42194 | 31.05016 | 28842 ft | 457 kts | 107° |
| 2026-04-25 03:14 | 40.41249 | 31.09006 | 29071 ft | 458 kts | 107° |
| 2026-04-25 03:14 | 40.40308 | 31.12961 | 29276 ft | 460 kts | 107° |
| 2026-04-25 03:15 | 40.39345 | 31.16973 | 29483 ft | 461 kts | 107° |
| 2026-04-25 03:15 | 40.38379 | 31.20984 | 29754 ft | 460 kts | 106° |
| 2026-04-25 03:15 | 40.37620 | 31.25051 | 30032 ft | 459 kts | 101° |
| 2026-04-25 03:15 | 40.36960 | 31.29146 | 30302 ft | 459 kts | 101° |
| 2026-04-25 03:16 | 40.36301 | 31.33240 | 30564 ft | 458 kts | 101° |
| 2026-04-25 03:16 | 40.35642 | 31.37334 | 30807 ft | 458 kts | 101° |
| 2026-04-25 03:16 | 40.34980 | 31.41428 | 31050 ft | 458 kts | 101° |
| 2026-04-25 03:16 | 40.34324 | 31.45468 | 31276 ft | 459 kts | 102° |
| 2026-04-25 03:17 | 40.33654 | 31.49551 | 31519 ft | 459 kts | 102° |
| 2026-04-25 03:17 | 40.32979 | 31.53638 | 31754 ft | 458 kts | 102° |
| 2026-04-25 03:17 | 40.32304 | 31.57721 | 31985 ft | 459 kts | 102° |
| 2026-04-25 03:17 | 40.31627 | 31.61822 | 32227 ft | 459 kts | 102° |
| 2026-04-25 03:18 | 40.30951 | 31.65912 | 32449 ft | 459 kts | 102° |
| 2026-04-25 03:18 | 40.30272 | 31.70003 | 32667 ft | 460 kts | 102° |
| 2026-04-25 03:18 | 40.29588 | 31.74109 | 32903 ft | 460 kts | 102° |
| 2026-04-25 03:18 | 40.28902 | 31.78212 | 33108 ft | 460 kts | 102° |
| 2026-04-25 03:19 | 40.28216 | 31.82305 | 33337 ft | 460 kts | 102° |
| 2026-04-25 03:19 | 40.27529 | 31.86399 | 33558 ft | 460 kts | 102° |
| 2026-04-25 03:19 | 40.26841 | 31.90498 | 33773 ft | 460 kts | 102° |
| 2026-04-25 03:19 | 40.26113 | 31.94584 | 33976 ft | 461 kts | 104° |
| 2026-04-25 03:20 | 40.25301 | 31.98604 | 34182 ft | 462 kts | 105° |
| 2026-04-25 03:20 | 40.24414 | 32.02640 | 34398 ft | 462 kts | 106° |
| 2026-04-25 03:20 | 40.23493 | 32.06671 | 34619 ft | 462 kts | 107° |
| 2026-04-25 03:20 | 40.22566 | 32.10694 | 34805 ft | 462 kts | 107° |
| 2026-04-25 03:21 | 40.21649 | 32.14728 | 35001 ft | 462 kts | 106° |
| 2026-04-25 03:21 | 40.20749 | 32.18773 | 35195 ft | 462 kts | 106° |
| 2026-04-25 03:21 | 40.19866 | 32.22808 | 35383 ft | 462 kts | 106° |
| 2026-04-25 03:21 | 40.18991 | 32.26844 | 35570 ft | 462 kts | 106° |
| 2026-04-25 03:22 | 40.18111 | 32.30888 | 35725 ft | 462 kts | 106° |
| 2026-04-25 03:22 | 40.17227 | 32.34937 | 35853 ft | 462 kts | 106° |
| 2026-04-25 03:22 | 40.16339 | 32.38982 | 36004 ft | 463 kts | 106° |
| 2026-04-25 03:22 | 40.15449 | 32.43027 | 36154 ft | 463 kts | 106° |
| 2026-04-25 03:23 | 40.14555 | 32.47068 | 36310 ft | 463 kts | 106° |
| 2026-04-25 03:23 | 40.13658 | 32.51120 | 36455 ft | 464 kts | 106° |
| 2026-04-25 03:23 | 40.12763 | 32.55169 | 36580 ft | 464 kts | 106° |
| 2026-04-25 03:23 | 40.11864 | 32.59214 | 36717 ft | 464 kts | 106° |
| 2026-04-25 03:24 | 40.11269 | 32.61891 | 36838 ft | 463 kts | 107° |
| 2026-04-25 03:24 | 40.10372 | 32.65920 | 37021 ft | 462 kts | 107° |
| 2026-04-25 03:24 | 40.08575 | 32.73954 | 37081 ft | 460 kts | 107° |
| 2026-04-25 03:25 | 40.06429 | 32.83260 | 37081 ft | 460 kts | 109° |
| 2026-04-25 03:25 | 40.04591 | 32.89838 | 37082 ft | 461 kts | 112° |
| 2026-04-25 03:26 | 40.02198 | 32.97564 | 37081 ft | 462 kts | 113° |
| 2026-04-25 03:26 | 39.99810 | 33.05354 | 37082 ft | 463 kts | 112° |
| 2026-04-25 03:27 | 39.97479 | 33.13196 | 37077 ft | 464 kts | 112° |
| 2026-04-25 03:27 | 39.95170 | 33.21063 | 37075 ft | 464 kts | 113° |
| 2026-04-25 03:28 | 39.92860 | 33.28884 | 37072 ft | 465 kts | 113° |
| 2026-04-25 03:28 | 39.90521 | 33.36751 | 37069 ft | 466 kts | 113° |
| 2026-04-25 03:29 | 39.88160 | 33.44639 | 37071 ft | 467 kts | 113° |
| 2026-04-25 03:29 | 39.85793 | 33.52510 | 37077 ft | 467 kts | 113° |
| 2026-04-25 03:30 | 39.83446 | 33.60343 | 37077 ft | 468 kts | 110° |
| 2026-04-25 03:30 | 39.81707 | 33.68523 | 37081 ft | 470 kts | 106° |
| 2026-04-25 03:31 | 39.80051 | 33.76741 | 37083 ft | 470 kts | 106° |
| 2026-04-25 03:31 | 39.78383 | 33.84965 | 37082 ft | 470 kts | 106° |
| 2026-04-25 03:32 | 39.76385 | 33.93036 | 37081 ft | 468 kts | 112° |
| 2026-04-25 03:32 | 39.74121 | 34.00977 | 37084 ft | 469 kts | 112° |
| 2026-04-25 03:33 | 39.71871 | 34.08934 | 37086 ft | 469 kts | 112° |
| 2026-04-25 03:33 | 39.69633 | 34.16844 | 37095 ft | 469 kts | 112° |
| 2026-04-25 03:34 | 39.67364 | 34.24806 | 37087 ft | 470 kts | 112° |
| 2026-04-25 03:34 | 39.65084 | 34.32755 | 37084 ft | 470 kts | 112° |
| 2026-04-25 03:35 | 39.62794 | 34.40717 | 37094 ft | 471 kts | 112° |
| 2026-04-25 03:35 | 39.60502 | 34.48680 | 37094 ft | 471 kts | 113° |
| 2026-04-25 03:36 | 39.58206 | 34.56653 | 37086 ft | 472 kts | 113° |
| 2026-04-25 03:36 | 39.55912 | 34.64576 | 37092 ft | 473 kts | 113° |
| 2026-04-25 03:37 | 39.53591 | 34.72553 | 37092 ft | 473 kts | 114° |
| 2026-04-25 03:37 | 39.51260 | 34.80532 | 37095 ft | 474 kts | 114° |
| 2026-04-25 03:38 | 39.48929 | 34.88527 | 37095 ft | 475 kts | 114° |
| 2026-04-25 03:38 | 39.46582 | 34.96533 | 37091 ft | 476 kts | 114° |
| 2026-04-25 03:39 | 39.44219 | 35.04556 | 37093 ft | 477 kts | 114° |
| 2026-04-25 03:39 | 39.41846 | 35.12579 | 37098 ft | 478 kts | 115° |
| 2026-04-25 03:40 | 39.39471 | 35.20610 | 37096 ft | 479 kts | 114° |
| 2026-04-25 03:40 | 39.37151 | 35.28631 | 37091 ft | 479 kts | 114° |
| 2026-04-25 03:41 | 39.34830 | 35.36714 | 37087 ft | 480 kts | 114° |
| 2026-04-25 03:41 | 39.32483 | 35.44802 | 37099 ft | 481 kts | 115° |
| 2026-04-25 03:42 | 39.30116 | 35.52883 | 37097 ft | 481 kts | 115° |
| 2026-04-25 03:42 | 39.27744 | 35.60976 | 37093 ft | 482 kts | 115° |
| 2026-04-25 03:43 | 39.25369 | 35.69086 | 37101 ft | 483 kts | 115° |
| 2026-04-25 03:43 | 39.23003 | 35.77128 | 37098 ft | 483 kts | 115° |
| 2026-04-25 03:44 | 39.20607 | 35.85229 | 37101 ft | 483 kts | 115° |
| 2026-04-25 03:44 | 39.18207 | 35.93312 | 37100 ft | 483 kts | 115° |
| 2026-04-25 03:45 | 39.15834 | 36.01423 | 37102 ft | 485 kts | 111° |
| 2026-04-25 03:45 | 39.14496 | 36.10010 | 37089 ft | 491 kts | 102° |
| 2026-04-25 03:46 | 39.13405 | 36.18702 | 37085 ft | 492 kts | 103° |
| 2026-04-25 03:46 | 39.12280 | 36.27407 | 37093 ft | 493 kts | 103° |
| 2026-04-25 03:47 | 39.11156 | 36.36080 | 37100 ft | 494 kts | 103° |
| 2026-04-25 03:47 | 39.10035 | 36.44810 | 37107 ft | 494 kts | 103° |
| 2026-04-25 03:48 | 39.08905 | 36.53548 | 37109 ft | 495 kts | 103° |
| 2026-04-25 03:48 | 39.07765 | 36.62298 | 37114 ft | 495 kts | 103° |
| 2026-04-25 03:49 | 39.06626 | 36.71029 | 37113 ft | 494 kts | 103° |
| 2026-04-25 03:49 | 39.05478 | 36.79758 | 37117 ft | 495 kts | 103° |
| 2026-04-25 03:50 | 39.04316 | 36.88483 | 37120 ft | 495 kts | 104° |
| 2026-04-25 03:50 | 39.03151 | 36.97162 | 37123 ft | 495 kts | 104° |
| 2026-04-25 03:51 | 39.01982 | 37.05898 | 37122 ft | 496 kts | 104° |
| 2026-04-25 03:51 | 39.00805 | 37.14640 | 37117 ft | 496 kts | 104° |
| 2026-04-25 03:52 | 38.99613 | 37.23372 | 37117 ft | 496 kts | 104° |
| 2026-04-25 03:52 | 38.98415 | 37.32115 | 37114 ft | 496 kts | 104° |
| 2026-04-25 03:53 | 38.97213 | 37.40847 | 37108 ft | 496 kts | 104° |
| 2026-04-25 03:53 | 38.96008 | 37.49584 | 37112 ft | 497 kts | 104° |
| 2026-04-25 03:54 | 38.94796 | 37.58324 | 37116 ft | 497 kts | 104° |
| 2026-04-25 03:54 | 38.93574 | 37.67068 | 37116 ft | 497 kts | 104° |
| 2026-04-25 03:55 | 38.92357 | 37.75749 | 37118 ft | 496 kts | 105° |
| 2026-04-25 03:55 | 38.91118 | 37.84473 | 37121 ft | 497 kts | 105° |
| 2026-04-25 03:56 | 38.89874 | 37.93208 | 37125 ft | 497 kts | 105° |
| 2026-04-25 03:56 | 38.88630 | 38.01930 | 37121 ft | 496 kts | 105° |
| 2026-04-25 03:57 | 38.87374 | 38.10663 | 37114 ft | 497 kts | 105° |
| 2026-04-25 03:57 | 38.86112 | 38.19341 | 37111 ft | 497 kts | 105° |
| 2026-04-25 03:58 | 38.84844 | 38.28068 | 37114 ft | 497 kts | 105° |
| 2026-04-25 03:58 | 38.83576 | 38.36784 | 37114 ft | 497 kts | 105° |
| 2026-04-25 03:59 | 38.82299 | 38.45500 | 37111 ft | 496 kts | 106° |
| 2026-04-25 03:59 | 38.81017 | 38.54157 | 37114 ft | 497 kts | 106° |
| 2026-04-25 04:00 | 38.79715 | 38.62855 | 37110 ft | 497 kts | 106° |
| 2026-04-25 04:00 | 38.78416 | 38.71566 | 37098 ft | 497 kts | 106° |
| 2026-04-25 04:01 | 38.77112 | 38.80273 | 37102 ft | 498 kts | 106° |
| 2026-04-25 04:01 | 38.75797 | 38.88987 | 37101 ft | 498 kts | 106° |
| 2026-04-25 04:02 | 38.74488 | 38.97698 | 37098 ft | 498 kts | 106° |
| 2026-04-25 04:02 | 38.73195 | 39.06425 | 37103 ft | 498 kts | 106° |
| 2026-04-25 04:03 | 38.71914 | 39.15085 | 37098 ft | 498 kts | 106° |
| 2026-04-25 04:03 | 38.70433 | 39.23706 | 37092 ft | 491 kts | 115° |
| 2026-04-25 04:04 | 38.68078 | 39.31868 | 37090 ft | 488 kts | 117° |
| 2026-04-25 04:04 | 38.65698 | 39.40005 | 37084 ft | 488 kts | 117° |
| 2026-04-25 04:05 | 38.63327 | 39.48127 | 37093 ft | 487 kts | 117° |
| 2026-04-25 04:05 | 38.60957 | 39.56260 | 37098 ft | 487 kts | 117° |
| 2026-04-25 04:06 | 38.58631 | 39.64347 | 37100 ft | 487 kts | 117° |
| 2026-04-25 04:06 | 38.56296 | 39.72468 | 37091 ft | 487 kts | 117° |
| 2026-04-25 04:07 | 38.53947 | 39.80571 | 37099 ft | 486 kts | 117° |
| 2026-04-25 04:07 | 38.51586 | 39.88673 | 37093 ft | 486 kts | 117° |
| 2026-04-25 04:08 | 38.49233 | 39.96752 | 37091 ft | 485 kts | 117° |
| 2026-04-25 04:08 | 38.46879 | 40.04822 | 37095 ft | 484 kts | 117° |
| 2026-04-25 04:09 | 38.44533 | 40.12819 | 37099 ft | 484 kts | 117° |
| 2026-04-25 04:09 | 38.42159 | 40.20855 | 37099 ft | 484 kts | 117° |
| 2026-04-25 04:10 | 38.39786 | 40.28902 | 37097 ft | 485 kts | 117° |
| 2026-04-25 04:10 | 38.37409 | 40.36947 | 37083 ft | 484 kts | 118° |
| 2026-04-25 04:11 | 38.33834 | 40.48997 | 37083 ft | 484 kts | 118° |
| 2026-04-25 04:12 | 38.31442 | 40.57025 | 37076 ft | 485 kts | 118° |
| 2026-04-25 04:12 | 38.29044 | 40.65044 | 37069 ft | 485 kts | 118° |
| 2026-04-25 04:13 | 38.26628 | 40.73080 | 37068 ft | 485 kts | 118° |
| 2026-04-25 04:13 | 38.24227 | 40.81042 | 37067 ft | 486 kts | 118° |
| 2026-04-25 04:14 | 38.22185 | 40.87754 | 37069 ft | 486 kts | 118° |
| 2026-04-25 04:14 | 38.19297 | 40.97026 | 37070 ft | 485 kts | 119° |
| 2026-04-25 04:15 | 38.17197 | 41.03708 | 37071 ft | 485 kts | 119° |
| 2026-04-25 04:15 | 38.14697 | 41.11670 | 37070 ft | 485 kts | 119° |
| 2026-04-25 04:16 | 38.12234 | 41.19608 | 37074 ft | 486 kts | 118° |
| 2026-04-25 04:16 | 38.09799 | 41.27627 | 37077 ft | 487 kts | 118° |
| 2026-04-25 04:17 | 38.07361 | 41.35638 | 37084 ft | 486 kts | 119° |
| 2026-04-25 04:17 | 38.04909 | 41.43623 | 37083 ft | 486 kts | 119° |
| 2026-04-25 04:18 | 38.02437 | 41.51598 | 37082 ft | 485 kts | 119° |
| 2026-04-25 04:18 | 37.99966 | 41.59563 | 37081 ft | 485 kts | 119° |
| 2026-04-25 04:19 | 37.97501 | 41.67517 | 37078 ft | 484 kts | 119° |
| 2026-04-25 04:19 | 37.95045 | 41.75440 | 37075 ft | 482 kts | 119° |
| 2026-04-25 04:20 | 37.92581 | 41.83330 | 37071 ft | 482 kts | 120° |
| 2026-04-25 04:20 | 37.90855 | 41.91618 | 37066 ft | 497 kts | 102° |
| 2026-04-25 04:21 | 37.90314 | 42.00370 | 37061 ft | 499 kts | 100° |
| 2026-04-25 04:21 | 37.89754 | 42.09066 | 37057 ft | 498 kts | 101° |
| 2026-04-25 04:22 | 37.89175 | 42.17815 | 37055 ft | 499 kts | 101° |
| 2026-04-25 04:22 | 37.88600 | 42.26560 | 37053 ft | 498 kts | 101° |
| 2026-04-25 04:23 | 37.88019 | 42.35313 | 37054 ft | 499 kts | 101° |
| 2026-04-25 04:23 | 37.87426 | 42.44059 | 37055 ft | 498 kts | 101° |
| 2026-04-25 04:24 | 37.86824 | 42.52802 | 37058 ft | 499 kts | 101° |
| 2026-04-25 04:24 | 37.86124 | 42.61517 | 37062 ft | 494 kts | 107° |
| 2026-04-25 04:25 | 37.84071 | 42.69621 | 37065 ft | 476 kts | 124° |
| 2026-04-25 04:25 | 37.80786 | 42.76775 | 37065 ft | 469 kts | 130° |
| 2026-04-25 04:26 | 37.77402 | 42.83822 | 37069 ft | 469 kts | 130° |
| 2026-04-25 04:26 | 37.74020 | 42.90869 | 37063 ft | 469 kts | 130° |
| 2026-04-25 04:27 | 37.70638 | 42.97911 | 37065 ft | 469 kts | 130° |
| 2026-04-25 04:27 | 37.67274 | 43.04909 | 37065 ft | 469 kts | 130° |
| 2026-04-25 04:28 | 37.63887 | 43.11948 | 37064 ft | 469 kts | 130° |
| 2026-04-25 04:28 | 37.60491 | 43.18984 | 37065 ft | 469 kts | 130° |
| 2026-04-25 04:29 | 37.57086 | 43.26009 | 37067 ft | 469 kts | 130° |
| 2026-04-25 04:29 | 37.53676 | 43.33018 | 37069 ft | 469 kts | 130° |
| 2026-04-25 04:30 | 37.50273 | 43.40017 | 37067 ft | 469 kts | 130° |
| 2026-04-25 04:30 | 37.46862 | 43.47027 | 37061 ft | 469 kts | 130° |
| 2026-04-25 04:31 | 37.43471 | 43.53969 | 37057 ft | 468 kts | 130° |
| 2026-04-25 04:31 | 37.40045 | 43.60961 | 37052 ft | 468 kts | 130° |
| 2026-04-25 04:32 | 37.36616 | 43.67937 | 37054 ft | 469 kts | 131° |
| 2026-04-25 04:32 | 37.33190 | 43.74913 | 37054 ft | 469 kts | 130° |
| 2026-04-25 04:33 | 37.29765 | 43.81882 | 37060 ft | 469 kts | 130° |
| 2026-04-25 04:33 | 37.26209 | 43.88682 | 37053 ft | 458 kts | 139° |
| 2026-04-25 04:33 | 37.24072 | 43.91502 | 37050 ft | 445 kts | 148° |
| 2026-04-25 04:34 | 37.21657 | 43.93844 | 37042 ft | 434 kts | 157° |
| 2026-04-25 04:34 | 37.19063 | 43.95675 | 37041 ft | 423 kts | 165° |
| 2026-04-25 04:34 | 37.16358 | 43.97040 | 37037 ft | 416 kts | 169° |
| 2026-04-25 04:35 | 37.10921 | 43.99574 | 37044 ft | 417 kts | 169° |
| 2026-04-25 04:35 | 37.05478 | 44.02109 | 37032 ft | 416 kts | 169° |
| 2026-04-25 04:36 | 37.00035 | 44.04634 | 37039 ft | 418 kts | 169° |
| 2026-04-25 04:36 | 36.94609 | 44.07160 | 37038 ft | 418 kts | 169° |
| 2026-04-25 04:37 | 36.89146 | 44.09699 | 37041 ft | 418 kts | 169° |
| 2026-04-25 04:37 | 36.83695 | 44.12220 | 37044 ft | 417 kts | 169° |
| 2026-04-25 04:38 | 36.78282 | 44.14714 | 37032 ft | 417 kts | 169° |
| 2026-04-25 04:38 | 36.72833 | 44.17231 | 37029 ft | 416 kts | 169° |
| 2026-04-25 04:39 | 36.67391 | 44.19742 | 37038 ft | 417 kts | 169° |
| 2026-04-25 04:39 | 36.61950 | 44.22246 | 37028 ft | 417 kts | 169° |
| 2026-04-25 04:40 | 36.56503 | 44.24741 | 37023 ft | 417 kts | 169° |
| 2026-04-25 04:40 | 36.51090 | 44.27217 | 37020 ft | 417 kts | 169° |
| 2026-04-25 04:41 | 36.45644 | 44.29720 | 37027 ft | 417 kts | 169° |
| 2026-04-25 04:41 | 36.40192 | 44.32207 | 37031 ft | 417 kts | 169° |
| 2026-04-25 04:42 | 36.34745 | 44.34690 | 37023 ft | 417 kts | 169° |
| 2026-04-25 04:42 | 36.29294 | 44.37178 | 37020 ft | 417 kts | 169° |
| 2026-04-25 04:43 | 36.23846 | 44.39654 | 37017 ft | 417 kts | 169° |
| 2026-04-25 04:43 | 36.18440 | 44.42109 | 37016 ft | 416 kts | 169° |
| 2026-04-25 04:44 | 36.12993 | 44.44578 | 37014 ft | 416 kts | 169° |
| 2026-04-25 04:44 | 36.07549 | 44.47044 | 37011 ft | 416 kts | 169° |
| 2026-04-25 04:45 | 36.02121 | 44.49505 | 37009 ft | 416 kts | 169° |
| 2026-04-25 04:45 | 35.96721 | 44.51946 | 37012 ft | 415 kts | 169° |
| 2026-04-25 04:46 | 35.91291 | 44.54392 | 37012 ft | 415 kts | 168° |
| 2026-04-25 04:46 | 35.85853 | 44.56844 | 37014 ft | 416 kts | 169° |
| 2026-04-25 04:47 | 35.80413 | 44.59290 | 37020 ft | 416 kts | 169° |
| 2026-04-25 04:47 | 35.74979 | 44.61724 | 37028 ft | 416 kts | 169° |
| 2026-04-25 04:48 | 35.69547 | 44.64153 | 37033 ft | 415 kts | 169° |
| 2026-04-25 04:48 | 35.64122 | 44.66591 | 37031 ft | 415 kts | 168° |
| 2026-04-25 04:49 | 35.58703 | 44.69029 | 37029 ft | 414 kts | 169° |
| 2026-04-25 04:49 | 35.53309 | 44.71426 | 37028 ft | 414 kts | 169° |
| 2026-04-25 04:50 | 35.47889 | 44.73831 | 37031 ft | 414 kts | 169° |
| 2026-04-25 04:50 | 35.42465 | 44.76243 | 37034 ft | 414 kts | 169° |
| 2026-04-25 04:51 | 35.37041 | 44.78659 | 37039 ft | 414 kts | 169° |
| 2026-04-25 04:51 | 35.31660 | 44.81050 | 37042 ft | 414 kts | 169° |
| 2026-04-25 04:52 | 35.26251 | 44.83452 | 37046 ft | 413 kts | 169° |
| 2026-04-25 04:52 | 35.20841 | 44.85840 | 37052 ft | 413 kts | 169° |
| 2026-04-25 04:53 | 35.15431 | 44.88220 | 37060 ft | 413 kts | 169° |
| 2026-04-25 04:53 | 35.10022 | 44.90610 | 37067 ft | 414 kts | 169° |
| 2026-04-25 04:54 | 35.04606 | 44.93000 | 37073 ft | 414 kts | 169° |
| 2026-04-25 04:54 | 34.99193 | 44.95381 | 37076 ft | 413 kts | 169° |
| 2026-04-25 04:55 | 34.93781 | 44.97764 | 37076 ft | 413 kts | 169° |
| 2026-04-25 04:55 | 34.88401 | 45.00130 | 37081 ft | 413 kts | 169° |
| 2026-04-25 04:56 | 34.82991 | 45.02499 | 37080 ft | 413 kts | 169° |
| 2026-04-25 04:56 | 34.77577 | 45.04863 | 37083 ft | 413 kts | 169° |
| 2026-04-25 04:57 | 34.72171 | 45.07233 | 37089 ft | 412 kts | 169° |
| 2026-04-25 04:57 | 34.66771 | 45.09597 | 37094 ft | 412 kts | 169° |
| 2026-04-25 04:58 | 34.61374 | 45.11944 | 37088 ft | 411 kts | 169° |
| 2026-04-25 04:58 | 34.56017 | 45.14270 | 37092 ft | 412 kts | 169° |
| 2026-04-25 04:59 | 34.50610 | 45.16504 | 36930 ft | 405 kts | 175° |
| 2026-04-25 04:59 | 34.47875 | 45.16960 | 36683 ft | 389 kts | 189° |
| 2026-04-25 04:59 | 34.45283 | 45.16371 | 36432 ft | 374 kts | 207° |
| 2026-04-25 04:59 | 34.43060 | 45.14811 | 36183 ft | 370 kts | 219° |
| 2026-04-25 05:00 | 34.40911 | 45.13077 | 35936 ft | 376 kts | 208° |
| 2026-04-25 05:00 | 34.38401 | 45.12027 | 35689 ft | 386 kts | 201° |
| 2026-04-25 05:00 | 34.35792 | 45.11158 | 35438 ft | 391 kts | 200° |
| 2026-04-25 05:00 | 34.33160 | 45.10295 | 35189 ft | 393 kts | 200° |
| 2026-04-25 05:01 | 34.30517 | 45.09425 | 35041 ft | 394 kts | 200° |
| 2026-04-25 05:01 | 34.25225 | 45.07620 | 35067 ft | 396 kts | 200° |
| 2026-04-25 05:02 | 34.19912 | 45.05866 | 35059 ft | 395 kts | 200° |
| 2026-04-25 05:02 | 34.14638 | 45.04115 | 35062 ft | 395 kts | 200° |
| 2026-04-25 05:03 | 34.09459 | 45.02024 | 35046 ft | 387 kts | 215° |
| 2026-04-25 05:03 | 34.05450 | 44.97761 | 34835 ft | 384 kts | 225° |
| 2026-04-25 05:03 | 34.03542 | 44.95507 | 34031 ft | 385 kts | 225° |
| 2026-04-25 05:04 | 34.01648 | 44.93257 | 33148 ft | 388 kts | 225° |
| 2026-04-25 05:04 | 33.99714 | 44.90961 | 32159 ft | 393 kts | 225° |
| 2026-04-25 05:04 | 33.97745 | 44.88632 | 31073 ft | 401 kts | 225° |
| 2026-04-25 05:04 | 33.95738 | 44.86254 | 29923 ft | 408 kts | 225° |
| 2026-04-25 05:05 | 33.94361 | 44.84629 | 29255 ft | 411 kts | 225° |
| 2026-04-25 05:05 | 33.92316 | 44.82218 | 28411 ft | 411 kts | 225° |
| 2026-04-25 05:05 | 33.90295 | 44.79824 | 27281 ft | 406 kts | 225° |
| 2026-04-25 05:05 | 33.88295 | 44.77441 | 26072 ft | 403 kts | 225° |
| 2026-04-25 05:06 | 33.86319 | 44.75068 | 24882 ft | 400 kts | 225° |
| 2026-04-25 05:06 | 33.84391 | 44.72736 | 23723 ft | 397 kts | 225° |
| 2026-04-25 05:06 | 33.82458 | 44.70378 | 22571 ft | 394 kts | 225° |
| 2026-04-25 05:06 | 33.80545 | 44.68036 | 21516 ft | 391 kts | 225° |
| 2026-04-25 05:07 | 33.78654 | 44.65722 | 20520 ft | 386 kts | 225° |
| 2026-04-25 05:07 | 33.76785 | 44.63433 | 19539 ft | 381 kts | 225° |
| 2026-04-25 05:07 | 33.74942 | 44.61178 | 18559 ft | 376 kts | 225° |
| 2026-04-25 05:07 | 33.73118 | 44.58946 | 17591 ft | 371 kts | 225° |
| 2026-04-25 05:08 | 33.72000 | 44.57579 | 16994 ft | 368 kts | 225° |
| 2026-04-25 05:10 | 33.70924 | 44.56266 | 16446 ft | 363 kts | 225° |
| 2026-04-25 05:10 | 33.69155 | 44.54105 | 15457 ft | 360 kts | 225° |
| 2026-04-25 05:10 | 33.67401 | 44.51968 | 14477 ft | 357 kts | 225° |
| 2026-04-25 05:10 | 33.65663 | 44.49855 | 13535 ft | 353 kts | 225° |
| 2026-04-25 05:11 | 33.63946 | 44.47768 | 12572 ft | 349 kts | 225° |
| 2026-04-25 05:11 | 33.62242 | 44.45704 | 11594 ft | 346 kts | 225° |
| 2026-04-25 05:11 | 33.60593 | 44.43616 | 10620 ft | 343 kts | 232° |
| 2026-04-25 05:12 | 33.58576 | 44.38700 | 10166 ft | 304 kts | 245° |
| 2026-04-25 05:12 | 33.57750 | 44.36428 | 9765 ft | 292 kts | 245° |
| 2026-04-25 05:12 | 33.56953 | 44.34214 | 9169 ft | 287 kts | 245° |
| 2026-04-25 05:12 | 33.56179 | 44.32040 | 8531 ft | 285 kts | 245° |
| 2026-04-25 05:13 | 33.55415 | 44.29862 | 7885 ft | 281 kts | 245° |
| 2026-04-25 05:13 | 33.54665 | 44.27705 | 7199 ft | 279 kts | 245° |
| 2026-04-25 05:13 | 33.53923 | 44.25557 | 6528 ft | 277 kts | 245° |
| 2026-04-25 05:13 | 33.53195 | 44.23434 | 5873 ft | 273 kts | 245° |
| 2026-04-25 05:14 | 33.52392 | 44.21485 | 5711 ft | 248 kts | 234° |
| 2026-04-25 05:14 | 33.51452 | 44.19735 | 5031 ft | 252 kts | 234° |
| 2026-04-25 05:14 | 33.50498 | 44.17958 | 4895 ft | 257 kts | 234° |
| 2026-04-25 05:15 | 33.48399 | 44.14486 | 4279 ft | 261 kts | 219° |
| 2026-04-25 05:15 | 33.46910 | 44.13373 | 3941 ft | 243 kts | 200° |
| 2026-04-25 05:15 | 33.45349 | 44.12897 | 3730 ft | 223 kts | 184° |
| 2026-04-25 05:15 | 33.43836 | 44.12956 | 3535 ft | 215 kts | 169° |
| 2026-04-25 05:16 | 33.42420 | 44.13484 | 3284 ft | 212 kts | 155° |
| 2026-04-25 05:16 | 33.41144 | 44.14336 | 3008 ft | 207 kts | 151° |
| 2026-04-25 05:16 | 33.39930 | 44.15175 | 2727 ft | 196 kts | 151° |
| 2026-04-25 05:16 | 33.38780 | 44.15966 | 2514 ft | 186 kts | 150° |
| 2026-04-25 05:17 | 33.37687 | 44.16718 | 2253 ft | 176 kts | 150° |
| 2026-04-25 05:17 | 33.36667 | 44.17420 | 2034 ft | 165 kts | 149° |
| 2026-04-25 05:17 | 33.35691 | 44.18092 | 1798 ft | 162 kts | 149° |
| 2026-04-25 05:17 | 33.34725 | 44.18757 | 1581 ft | 155 kts | 149° |
| 2026-04-25 05:18 | 33.33831 | 44.19371 | 1376 ft | 144 kts | 148° |
| 2026-04-25 05:18 | 33.32970 | 44.19962 | 1187 ft | 141 kts | 148° |
| 2026-04-25 05:18 | 33.32123 | 44.20544 | 1001 ft | 140 kts | 149° |
| 2026-04-25 05:18 | 33.31284 | 44.21124 | 837 ft | 139 kts | 148° |
| 2026-04-25 05:19 | 33.30444 | 44.21703 | 644 ft | 139 kts | 149° |
| 2026-04-25 05:19 | 33.29599 | 44.22283 | 433 ft | 140 kts | 149° |
| 2026-04-25 05:19 | 33.28755 | 44.22857 | 283 ft | 140 kts | 148° |
| 2026-04-25 05:19 | 33.27920 | 44.23435 | 142 ft | 133 kts | 150° |
| 2026-04-25 05:20 | 33.27256 | 44.23901 | 137 ft | 88 kts | 149° |
| 2026-04-25 05:20 | 33.26896 | 44.24138 | 141 ft | 30 kts | 166° |
| 2026-04-25 05:20 | 33.26712 | 44.24140 | 141 ft | 16 kts | 189° |
| 2026-04-25 05:20 | 33.26651 | 44.24061 | 140 ft | 10 kts | 276° |
| 2026-04-25 05:21 | 33.26700 | 44.24012 | 140 ft | 9 kts | 327° |
| 2026-04-25 05:21 | 33.26748 | 44.23976 | 140 ft | 8 kts | 331° |
| 2026-04-25 05:21 | 33.26791 | 44.23948 | 140 ft | 7 kts | 330° |
| 2026-04-25 05:21 | 33.26828 | 44.23923 | 140 ft | 6 kts | 330° |
| 2026-04-25 05:22 | 33.26872 | 44.23894 | 140 ft | 15 kts | 330° |
| 2026-04-25 05:22 | 33.27016 | 44.23799 | 140 ft | 26 kts | 330° |
| 2026-04-25 05:22 | 33.27179 | 44.23684 | 140 ft | 28 kts | 329° |
| 2026-04-25 05:22 | 33.27347 | 44.23564 | 139 ft | 21 kts | 328° |
| 2026-04-25 05:23 | 33.27376 | 44.23510 | 139 ft | 7 kts | 253° |
| 2026-04-25 05:23 | 33.27313 | 44.23377 | 140 ft | 30 kts | 238° |
| 2026-04-25 05:23 | 33.27221 | 44.23195 | 140 ft | 26 kts | 239° |
| 2026-04-25 05:23 | 33.27149 | 44.23044 | 139 ft | 16 kts | 241° |
| 2026-04-25 05:24 | 33.27102 | 44.23025 | 140 ft | 6 kts | 156° |
| 2026-04-25 05:24 | 33.27066 | 44.23046 | 140 ft | 5 kts | 156° |
| 2026-04-25 05:24 | 33.27035 | 44.23061 | 140 ft | 4 kts | 160° |
| 2026-04-25 05:24 | 33.27033 | 44.23061 | 140 ft | 0 kts | 160° |